Time;durP1;ratioP1;P1;durP2;ratioP2;P2;SDS_P1;SDS_P2;PMS_P1;PMS_P2;Temp;Humidity;BMP_temperature;BMP_pressure;BME280_temperature;BME280_humidity;BME280_pressure;Samples;Min_cycle;Max_cycle;Signal;HPM_P1;HPM_P2
2022/01/04 00:01:29;;;;;;;0.00;0.00;;;;;;;;;;5008711;28;20091;-69
2022/01/04 00:03:55;;;;;;;0.00;0.00;;;;;;;;;;5028393;28;20032;-69
2022/01/04 00:06:21;;;;;;;0.20;0.20;;;;;;;;;;5019459;28;20029;-68
2022/01/04 00:08:47;;;;;;;1.65;0.98;;;;;;;;;;5028525;28;20037;-69
2022/01/04 00:13:43;;;;;;;0.30;0.30;;;;;;;;;;5025452;28;20041;-70
2022/01/04 00:16:10;;;;;;;0.08;0.08;;;;;;;;;;5025516;28;20116;-69
2022/01/04 00:18:36;;;;;;;0.10;0.10;;;;;;;;;;5024945;28;20035;-69
2022/01/04 00:21:03;;;;;;;0.20;0.20;;;;;;;;;;5026788;28;20388;-69
2022/01/04 00:23:29;;;;;;;0.00;0.00;;;;;;;;;;5025461;28;20041;-69
2022/01/04 00:25:55;;;;;;;0.00;0.00;;;;;;;;;;5026658;28;20037;-69
2022/01/04 00:28:22;;;;;;;0.00;0.00;;;;;;;;;;5026999;28;20108;-68
2022/01/04 00:30:48;;;;;;;0.05;0.05;;;;;;;;;;5029021;28;20038;-68
2022/01/04 00:33:16;;;;;;;0.70;0.70;;;;;;;;;;5025912;28;20536;-69
2022/01/04 00:35:43;;;;;;;0.00;0.00;;;;;;;;;;5026951;28;20033;-69
2022/01/04 00:38:09;;;;;;;0.10;0.10;;;;;;;;;;5027982;28;20021;-69
2022/01/04 00:40:35;;;;;;;0.00;0.00;;;;;;;;;;5025558;28;20117;-70
2022/01/04 00:43:01;;;;;;;0.10;0.10;;;;;;;;;;5028410;28;20033;-69
2022/01/04 00:45:31;;;;;;;0.10;0.10;;;;;;;;;;5025671;28;20029;-70
2022/01/04 00:50:23;;;;;;;0.00;0.00;;;;;;;;;;5022656;28;20041;-68
2022/01/04 00:52:49;;;;;;;0.22;0.22;;;;;;;;;;5026813;28;20053;-68
2022/01/04 00:55:15;;;;;;;0.10;0.10;;;;;;;;;;5027819;28;20021;-69
2022/01/04 00:57:41;;;;;;;0.10;0.10;;;;;;;;;;5028145;28;20393;-69
2022/01/04 01:00:08;;;;;;;0.10;0.10;;;;;;;;;;5024019;28;20040;-69
2022/01/04 01:02:34;;;;;;;0.90;0.50;;;;;;;;;;5031226;28;20025;-69
2022/01/04 01:05:00;;;;;;;0.00;0.00;;;;;;;;;;5028935;28;20237;-69
2022/01/04 01:07:26;;;;;;;0.10;0.10;;;;;;;;;;5030057;28;20372;-69
2022/01/04 01:10:12;;;;;;;0.88;0.25;;;;;;;;;;5027797;28;20438;-69
2022/01/04 01:12:38;;;;;;;0.15;0.15;;;;;;;;;;5028081;28;20053;-69
2022/01/04 01:15:04;;;;;;;0.32;0.32;;;;;;;;;;5027610;28;20068;-69
2022/01/04 01:17:30;;;;;;;0.95;0.52;;;;;;;;;;5025862;28;20041;-70
2022/01/04 01:19:57;;;;;;;0.20;0.20;;;;;;;;;;5027316;28;20029;-69
2022/01/04 01:22:23;;;;;;;0.25;0.20;;;;;;;;;;5028440;28;20053;-70
2022/01/04 01:24:48;;;;;;;0.00;0.00;;;;;;;;;;5022232;28;20034;-69
2022/01/04 01:27:14;;;;;;;0.22;0.20;;;;;;;;;;5027948;28;20049;-69
2022/01/04 01:29:40;;;;;;;0.20;0.20;;;;;;;;;;5027138;28;20037;-69
2022/01/04 01:32:07;;;;;;;0.40;0.40;;;;;;;;;;5022727;28;20143;-69
2022/01/04 01:34:32;;;;;;;0.30;0.20;;;;;;;;;;5027188;28;20033;-69
2022/01/04 01:36:58;;;;;;;0.00;0.00;;;;;;;;;;5019765;28;20033;-69
2022/01/04 01:39:25;;;;;;;0.00;0.00;;;;;;;;;;5032050;28;20032;-69
2022/01/04 01:41:51;;;;;;;0.00;0.00;;;;;;;;;;5023028;28;20040;-69
2022/01/04 01:44:17;;;;;;;0.03;0.03;;;;;;;;;;5025483;28;20033;-69
2022/01/04 01:46:43;;;;;;;0.20;0.20;;;;;;;;;;5024226;28;20041;-69
2022/01/04 01:49:09;;;;;;;0.10;0.10;;;;;;;;;;5026629;28;20091;-69
2022/01/04 01:51:34;;;;;;;0.10;0.10;;;;;;;;;;5024043;28;20038;-69
2022/01/04 01:54:01;;;;;;;0.00;0.00;;;;;;;;;;5027213;28;20025;-69
2022/01/04 01:56:29;;;;;;;0.10;0.10;;;;;;;;;;5025733;28;20025;-69
2022/01/04 01:58:55;;;;;;;0.00;0.00;;;;;;;;;;5010034;28;20420;-69
2022/01/04 02:01:21;;;;;;;0.00;0.00;;;;;;;;;;5030041;28;20108;-69
2022/01/04 02:03:47;;;;;;;2.42;1.58;;;;;;;;;;5026656;28;20484;-69
2022/01/04 02:06:13;;;;;;;0.13;0.13;;;;;;;;;;5024746;28;20392;-69
2022/01/04 02:08:39;;;;;;;16.55;1.75;;;;;;;;;;5020884;28;20477;-69
2022/01/04 02:11:05;;;;;;;0.00;0.00;;;;;;;;;;5024975;28;20025;-69
2022/01/04 02:13:31;;;;;;;0.43;0.43;;;;;;;;;;5030625;28;20120;-69
2022/01/04 02:15:57;;;;;;;0.08;0.08;;;;;;;;;;5031059;28;20078;-70
2022/01/04 02:18:24;;;;;;;0.00;0.00;;;;;;;;;;5022342;28;20045;-69
2022/01/04 02:20:50;;;;;;;0.35;0.35;;;;;;;;;;5034223;28;20056;-69
2022/01/04 02:23:16;;;;;;;0.10;0.10;;;;;;;;;;5024051;28;20496;-70
2022/01/04 02:25:42;;;;;;;0.20;0.20;;;;;;;;;;5013890;28;20492;-69
2022/01/04 02:28:08;;;;;;;1.10;1.00;;;;;;;;;;5021829;28;20033;-69
2022/01/04 02:30:34;;;;;;;0.03;0.03;;;;;;;;;;5030880;28;20033;-69
2022/01/04 02:33:00;;;;;;;0.03;0.03;;;;;;;;;;5024517;28;20021;-69
2022/01/04 02:35:27;;;;;;;0.00;0.00;;;;;;;;;;5018829;28;20366;-69
2022/01/04 02:37:57;;;;;;;0.03;0.03;;;;;;;;;;5025712;28;20032;-69
2022/01/04 02:46:02;;;;;;;0.05;0.05;;;;;;;;;;4981133;28;20531;-70
2022/01/04 02:48:28;;;;;;;0.10;0.10;;;;;;;;;;4994436;28;20038;-70
2022/01/04 02:50:56;;;;;;;0.00;0.00;;;;;;;;;;4990478;28;20084;-70
2022/01/04 02:53:22;;;;;;;0.00;0.00;;;;;;;;;;4990279;28;20425;-70
2022/01/04 02:55:47;;;;;;;0.00;0.00;;;;;;;;;;4990826;28;20160;-70
2022/01/04 02:58:14;;;;;;;0.00;0.00;;;;;;;;;;4987204;28;20034;-70
2022/01/04 03:00:40;;;;;;;0.00;0.00;;;;;;;;;;4990683;28;20034;-71
2022/01/04 03:03:06;;;;;;;0.08;0.03;;;;;;;;;;4990700;28;20034;-70
2022/01/04 03:05:32;;;;;;;0.10;0.10;;;;;;;;;;4991400;28;20014;-70
2022/01/04 03:07:58;;;;;;;0.05;0.05;;;;;;;;;;4990155;28;20053;-70
2022/01/04 03:10:23;;;;;;;0.08;0.08;;;;;;;;;;4989947;28;20030;-70
2022/01/04 03:12:49;;;;;;;0.45;0.45;;;;;;;;;;4991418;28;20027;-70
2022/01/04 03:15:16;;;;;;;0.13;0.13;;;;;;;;;;4987052;28;20029;-69
2022/01/04 03:17:42;;;;;;;0.00;0.00;;;;;;;;;;4989021;28;20054;-70
2022/01/04 03:20:08;;;;;;;0.08;0.08;;;;;;;;;;4987113;28;20399;-70
2022/01/04 03:22:34;;;;;;;12.75;0.45;;;;;;;;;;4988264;28;20030;-70
2022/01/04 03:25:00;;;;;;;0.00;0.00;;;;;;;;;;4983024;28;20032;-69
2022/01/04 03:27:26;;;;;;;0.00;0.00;;;;;;;;;;4990308;28;20113;-70
2022/01/04 03:29:52;;;;;;;0.08;0.08;;;;;;;;;;4991101;28;20499;-70
2022/01/04 03:32:18;;;;;;;0.00;0.00;;;;;;;;;;4988909;28;20437;-70
2022/01/04 03:34:44;;;;;;;0.15;0.15;;;;;;;;;;4983250;28;20236;-70
2022/01/04 03:37:09;;;;;;;0.10;0.10;;;;;;;;;;4989711;28;20045;-70
2022/01/04 03:39:35;;;;;;;0.10;0.10;;;;;;;;;;4981933;28;20027;-70
2022/01/04 03:42:01;;;;;;;0.10;0.10;;;;;;;;;;4989147;28;20109;-70
2022/01/04 03:44:27;;;;;;;0.08;0.08;;;;;;;;;;4967751;28;20043;-70
2022/01/04 03:46:54;;;;;;;0.00;0.00;;;;;;;;;;4968589;28;20022;-70
2022/01/04 03:49:20;;;;;;;0.00;0.00;;;;;;;;;;4960941;28;20027;-70
2022/01/04 03:51:46;;;;;;;0.00;0.00;;;;;;;;;;4959741;28;20064;-70
2022/01/04 03:54:12;;;;;;;0.00;0.00;;;;;;;;;;4965782;28;20065;-70
2022/01/04 03:56:38;;;;;;;0.22;0.05;;;;;;;;;;4960227;28;20034;-70
2022/01/04 03:59:04;;;;;;;0.00;0.00;;;;;;;;;;4960467;28;20031;-70
2022/01/04 04:01:30;;;;;;;0.00;0.00;;;;;;;;;;4965402;28;20520;-70
2022/01/04 04:03:56;;;;;;;0.20;0.20;;;;;;;;;;4964876;28;20034;-70
2022/01/04 04:06:22;;;;;;;1.10;1.00;;;;;;;;;;4967497;28;20031;-70
2022/01/04 04:08:48;;;;;;;0.52;0.52;;;;;;;;;;4977897;28;20041;-70
2022/01/04 04:11:14;;;;;;;0.00;0.00;;;;;;;;;;4962147;28;20034;-70
2022/01/04 04:13:40;;;;;;;0.00;0.00;;;;;;;;;;4973857;28;20023;-70
2022/01/04 04:16:06;;;;;;;0.00;0.00;;;;;;;;;;4966054;28;20038;-70
2022/01/04 04:18:32;;;;;;;0.55;0.55;;;;;;;;;;4962181;28;20362;-70
2022/01/04 04:20:58;;;;;;;0.00;0.00;;;;;;;;;;4964954;28;20117;-70
2022/01/04 04:23:24;;;;;;;0.08;0.08;;;;;;;;;;4959022;28;20068;-72
2022/01/04 04:25:50;;;;;;;0.00;0.00;;;;;;;;;;4961738;28;20036;-72
2022/01/04 04:28:16;;;;;;;0.10;0.10;;;;;;;;;;4971385;28;20041;-73
2022/01/04 04:30:42;;;;;;;0.08;0.08;;;;;;;;;;4963527;28;20066;-72
2022/01/04 04:33:08;;;;;;;0.00;0.00;;;;;;;;;;4970339;28;20027;-72
2022/01/04 04:35:34;;;;;;;0.75;0.20;;;;;;;;;;4968815;28;20026;-72
2022/01/04 04:38:00;;;;;;;0.00;0.00;;;;;;;;;;4963307;28;20027;-72
2022/01/04 04:40:26;;;;;;;0.10;0.10;;;;;;;;;;4958715;28;20035;-72
2022/01/04 04:42:52;;;;;;;0.00;0.00;;;;;;;;;;4970866;28;20053;-71
2022/01/04 04:45:18;;;;;;;0.00;0.00;;;;;;;;;;4965005;28;20497;-72
2022/01/04 04:47:44;;;;;;;0.63;0.43;;;;;;;;;;4965589;28;20054;-72
2022/01/04 04:50:10;;;;;;;0.13;0.05;;;;;;;;;;4971885;28;20035;-72
2022/01/04 04:52:36;;;;;;;0.00;0.00;;;;;;;;;;4974390;28;20425;-72
2022/01/04 04:55:03;;;;;;;0.00;0.00;;;;;;;;;;4964553;28;20035;-72
2022/01/04 04:57:29;;;;;;;0.10;0.10;;;;;;;;;;4963697;28;20031;-72
2022/01/04 04:59:55;;;;;;;0.00;0.00;;;;;;;;;;4970873;28;20045;-72
2022/01/04 05:02:21;;;;;;;0.13;0.13;;;;;;;;;;4966476;28;20477;-72
2022/01/04 05:04:47;;;;;;;0.00;0.00;;;;;;;;;;4968405;28;20027;-72
2022/01/04 05:07:13;;;;;;;0.05;0.05;;;;;;;;;;4970731;28;20018;-72
2022/01/04 05:09:39;;;;;;;0.03;0.03;;;;;;;;;;4972744;28;20041;-72
2022/01/04 05:12:06;;;;;;;0.00;0.00;;;;;;;;;;4959482;28;20038;-72
2022/01/04 05:14:32;;;;;;;0.10;0.10;;;;;;;;;;4972686;28;20030;-72
2022/01/04 05:16:58;;;;;;;0.00;0.00;;;;;;;;;;4966789;28;20035;-72
2022/01/04 05:19:24;;;;;;;0.00;0.00;;;;;;;;;;4966475;28;20055;-72
2022/01/04 05:21:50;;;;;;;0.10;0.10;;;;;;;;;;4959369;28;20042;-72
2022/01/04 05:24:15;;;;;;;0.10;0.10;;;;;;;;;;4969485;28;20090;-72
2022/01/04 05:26:41;;;;;;;0.20;0.20;;;;;;;;;;4971957;28;20114;-72
2022/01/04 05:29:07;;;;;;;0.03;0.03;;;;;;;;;;4972192;28;20583;-72
2022/01/04 05:31:33;;;;;;;0.00;0.00;;;;;;;;;;4961352;28;20123;-72
2022/01/04 05:33:59;;;;;;;0.40;0.40;;;;;;;;;;4980284;28;20034;-72
2022/01/04 05:36:25;;;;;;;0.10;0.10;;;;;;;;;;4963377;28;20030;-71
2022/01/04 05:38:51;;;;;;;0.45;0.45;;;;;;;;;;4958273;28;20023;-72
2022/01/04 05:41:17;;;;;;;0.10;0.10;;;;;;;;;;4954799;28;20462;-72
2022/01/04 05:43:43;;;;;;;4.40;1.75;;;;;;;;;;4964527;28;20038;-72
2022/01/04 05:46:09;;;;;;;0.20;0.20;;;;;;;;;;4961802;28;20039;-72
2022/01/04 05:48:35;;;;;;;0.38;0.38;;;;;;;;;;4980610;28;20038;-72
2022/01/04 05:51:01;;;;;;;0.10;0.10;;;;;;;;;;4968005;28;20063;-72
2022/01/04 05:53:28;;;;;;;0.47;0.47;;;;;;;;;;4971851;28;20050;-71
2022/01/04 05:55:54;;;;;;;1.55;1.05;;;;;;;;;;4970617;28;20537;-72
2022/01/04 05:58:20;;;;;;;0.10;0.10;;;;;;;;;;4957389;28;20110;-72
2022/01/04 06:00:45;;;;;;;0.00;0.00;;;;;;;;;;4959578;28;20038;-72
2022/01/04 06:03:11;;;;;;;0.25;0.25;;;;;;;;;;4953423;28;20103;-70
2022/01/04 06:05:37;;;;;;;0.25;0.25;;;;;;;;;;4956719;28;20035;-69
2022/01/04 06:08:03;;;;;;;0.43;0.43;;;;;;;;;;4965823;28;20118;-70
2022/01/04 06:10:36;;;;;;;0.20;0.20;;;;;;;;;;4962942;28;20058;-69
2022/01/04 06:15:28;;;;;;;0.93;0.30;;;;;;;;;;4979976;28;20539;-69
2022/01/04 06:17:54;;;;;;;0.25;0.25;;;;;;;;;;4984349;28;20030;-69
2022/01/04 06:20:24;;;;;;;0.28;0.28;;;;;;;;;;4965921;28;20045;-69
2022/01/04 06:22:54;;;;;;;0.10;0.10;;;;;;;;;;4966000;28;20027;-69
2022/01/04 06:25:22;;;;;;;0.70;0.65;;;;;;;;;;4963535;28;20066;-73
2022/01/04 06:27:49;;;;;;;0.03;0.03;;;;;;;;;;4961977;28;20397;-69
2022/01/04 06:30:19;;;;;;;0.03;0.03;;;;;;;;;;4975541;28;20145;-67
2022/01/04 06:32:46;;;;;;;0.20;0.20;;;;;;;;;;4959468;28;20440;-68
2022/01/04 06:35:13;;;;;;;0.10;0.10;;;;;;;;;;4962364;28;20133;-69
2022/01/04 06:37:39;;;;;;;0.00;0.00;;;;;;;;;;4974166;28;20057;-69
2022/01/04 06:40:05;;;;;;;0.13;0.13;;;;;;;;;;4972583;28;20557;-69
2022/01/04 06:42:31;;;;;;;0.10;0.10;;;;;;;;;;4976108;28;20034;-69
2022/01/04 06:44:57;;;;;;;0.95;0.65;;;;;;;;;;4989118;28;20516;-69
2022/01/04 06:47:23;;;;;;;0.08;0.08;;;;;;;;;;4994152;28;20033;-69
2022/01/04 06:49:49;;;;;;;1.27;0.95;;;;;;;;;;4981254;28;20530;-68
2022/01/04 06:52:15;;;;;;;0.10;0.10;;;;;;;;;;4991435;28;20396;-69
2022/01/04 06:54:41;;;;;;;0.15;0.15;;;;;;;;;;4984478;28;20046;-69
2022/01/04 06:57:07;;;;;;;0.47;0.47;;;;;;;;;;4982392;28;20115;-68
2022/01/04 06:59:32;;;;;;;0.00;0.00;;;;;;;;;;4995461;28;20468;-69
2022/01/04 07:02:00;;;;;;;0.70;0.70;;;;;;;;;;4989086;28;20031;-69
2022/01/04 07:04:26;;;;;;;0.00;0.00;;;;;;;;;;4987947;28;20825;-69
2022/01/04 07:06:52;;;;;;;0.10;0.10;;;;;;;;;;4981337;28;20034;-69
2022/01/04 07:09:18;;;;;;;0.03;0.03;;;;;;;;;;4980746;28;20031;-69
2022/01/04 07:11:44;;;;;;;0.08;0.08;;;;;;;;;;4982370;28;20034;-69
2022/01/04 07:14:10;;;;;;;0.60;0.57;;;;;;;;;;4988779;28;20033;-68
2022/01/04 07:16:36;;;;;;;0.10;0.10;;;;;;;;;;4992812;28;20034;-69
2022/01/04 07:19:02;;;;;;;0.17;0.17;;;;;;;;;;4990267;28;20034;-69
2022/01/04 07:21:28;;;;;;;0.25;0.10;;;;;;;;;;4977239;28;20081;-69
2022/01/04 07:23:57;;;;;;;0.00;0.00;;;;;;;;;;4981853;28;20399;-68
2022/01/04 07:26:23;;;;;;;0.20;0.20;;;;;;;;;;4996688;28;20030;-68
2022/01/04 07:28:49;;;;;;;0.70;0.63;;;;;;;;;;4991201;28;20468;-69
2022/01/04 07:31:16;;;;;;;0.15;0.15;;;;;;;;;;4992365;28;20041;-69
2022/01/04 07:33:42;;;;;;;0.85;0.73;;;;;;;;;;4993445;28;20476;-69
2022/01/04 07:36:08;;;;;;;0.10;0.10;;;;;;;;;;4983417;28;20055;-68
2022/01/04 07:38:35;;;;;;;0.13;0.13;;;;;;;;;;4978999;28;20019;-69
2022/01/04 07:41:01;;;;;;;0.20;0.20;;;;;;;;;;4985236;28;20022;-69
2022/01/04 07:43:27;;;;;;;0.25;0.25;;;;;;;;;;4989804;28;20691;-69
2022/01/04 07:45:53;;;;;;;0.15;0.15;;;;;;;;;;4997162;28;20061;-68
2022/01/04 07:48:19;;;;;;;13.52;0.95;;;;;;;;;;4989462;28;20034;-69
2022/01/04 07:50:45;;;;;;;0.28;0.28;;;;;;;;;;4987853;28;20035;-69
2022/01/04 07:53:11;;;;;;;1.58;0.93;;;;;;;;;;4990502;28;20251;-69
2022/01/04 07:55:37;;;;;;;0.77;0.77;;;;;;;;;;4984603;28;20451;-69
2022/01/04 07:58:03;;;;;;;0.00;0.00;;;;;;;;;;4987947;28;20045;-69
2022/01/04 08:00:29;;;;;;;0.15;0.15;;;;;;;;;;4989718;28;20039;-70
2022/01/04 08:02:55;;;;;;;0.45;0.35;;;;;;;;;;4991376;28;20116;-69
2022/01/04 08:05:22;;;;;;;0.10;0.10;;;;;;;;;;4996336;28;20033;-68
2022/01/04 08:07:49;;;;;;;0.55;0.30;;;;;;;;;;5003048;28;20034;-68
2022/01/04 08:10:15;;;;;;;0.20;0.20;;;;;;;;;;4978364;28;21289;-69
2022/01/04 08:12:41;;;;;;;0.20;0.20;;;;;;;;;;4997480;28;20706;-68
2022/01/04 08:15:07;;;;;;;0.13;0.13;;;;;;;;;;4986202;28;20084;-68
2022/01/04 08:17:34;;;;;;;0.00;0.00;;;;;;;;;;4988527;28;20416;-69
2022/01/04 08:20:00;;;;;;;0.38;0.38;;;;;;;;;;4991808;28;20026;-69
2022/01/04 08:22:31;;;;;;;0.10;0.10;;;;;;;;;;4984998;28;20022;-69
2022/01/04 08:24:58;;;;;;;0.75;0.55;;;;;;;;;;4981557;28;20030;-69
2022/01/04 08:27:24;;;;;;;0.10;0.10;;;;;;;;;;4990579;28;20034;-69
2022/01/04 08:29:50;;;;;;;0.05;0.05;;;;;;;;;;4990701;28;20042;-69
2022/01/04 08:32:16;;;;;;;0.10;0.10;;;;;;;;;;4974661;28;20454;-69
2022/01/04 08:34:42;;;;;;;0.10;0.10;;;;;;;;;;4992845;28;20023;-69
2022/01/04 08:37:07;;;;;;;0.00;0.00;;;;;;;;;;4990212;28;20018;-68
2022/01/04 08:39:33;;;;;;;0.10;0.10;;;;;;;;;;4977679;28;20500;-69
2022/01/04 08:42:01;;;;;;;0.22;0.22;;;;;;;;;;4984863;28;20037;-69
2022/01/04 08:44:28;;;;;;;0.35;0.30;;;;;;;;;;4984656;28;20280;-68
2022/01/04 08:46:54;;;;;;;0.03;0.03;;;;;;;;;;4986360;28;20029;-68
2022/01/04 08:49:20;;;;;;;0.20;0.20;;;;;;;;;;4988121;28;20034;-68
2022/01/04 08:51:46;;;;;;;0.00;0.00;;;;;;;;;;4992949;28;20038;-69
2022/01/04 08:54:14;;;;;;;0.10;0.10;;;;;;;;;;4986837;28;20033;-69
2022/01/04 08:56:41;;;;;;;0.08;0.08;;;;;;;;;;4976511;28;20034;-69
2022/01/04 08:59:09;;;;;;;0.10;0.10;;;;;;;;;;4985141;28;20077;-70
2022/01/04 09:01:36;;;;;;;0.25;0.25;;;;;;;;;;4992756;28;20026;-70
2022/01/04 09:04:02;;;;;;;0.03;0.03;;;;;;;;;;4991085;28;20042;-70
2022/01/04 09:06:28;;;;;;;0.08;0.08;;;;;;;;;;4973547;28;20030;-70
2022/01/04 09:08:56;;;;;;;0.20;0.20;;;;;;;;;;4978907;28;20042;-70
2022/01/04 09:11:22;;;;;;;0.00;0.00;;;;;;;;;;4985823;28;20038;-70
2022/01/04 09:13:49;;;;;;;0.68;0.63;;;;;;;;;;4988035;28;20035;-70
2022/01/04 09:18:48;;;;;;;0.45;0.45;;;;;;;;;;4985794;28;20057;-70
2022/01/04 09:21:16;;;;;;;0.15;0.15;;;;;;;;;;4976821;28;20168;-70
2022/01/04 09:23:42;;;;;;;0.03;0.03;;;;;;;;;;4985551;28;20524;-70
2022/01/04 09:26:09;;;;;;;0.00;0.00;;;;;;;;;;4984517;28;20050;-70
2022/01/04 09:28:35;;;;;;;0.03;0.03;;;;;;;;;;4987357;28;20038;-70
2022/01/04 09:31:01;;;;;;;0.00;0.00;;;;;;;;;;4976324;28;20042;-70
2022/01/04 09:33:27;;;;;;;0.00;0.00;;;;;;;;;;4994765;28;20037;-71
2022/01/04 09:35:53;;;;;;;0.00;0.00;;;;;;;;;;4981704;28;20080;-71
2022/01/04 09:38:20;;;;;;;0.10;0.10;;;;;;;;;;4991583;28;20041;-70
2022/01/04 09:40:48;;;;;;;0.20;0.05;;;;;;;;;;4976458;28;20049;-70
2022/01/04 09:43:14;;;;;;;2.10;0.63;;;;;;;;;;4983784;28;20258;-70
2022/01/04 09:45:40;;;;;;;0.00;0.00;;;;;;;;;;4982991;28;20038;-70
2022/01/04 09:48:06;;;;;;;0.52;0.52;;;;;;;;;;4979320;28;20409;-75
2022/01/04 09:50:33;;;;;;;0.15;0.15;;;;;;;;;;4975212;28;20035;-71
2022/01/04 09:52:59;;;;;;;0.22;0.22;;;;;;;;;;4971688;28;20122;-70
2022/01/04 09:55:25;;;;;;;0.20;0.20;;;;;;;;;;4976863;28;20041;-70
2022/01/04 09:57:51;;;;;;;0.00;0.00;;;;;;;;;;4987203;28;20034;-71
2022/01/04 10:00:18;;;;;;;0.00;0.00;;;;;;;;;;4971461;28;20030;-70
2022/01/04 10:02:45;;;;;;;0.25;0.25;;;;;;;;;;4975954;28;20046;-72
2022/01/04 10:05:22;;;;;;;0.63;0.55;;;;;;;;;;4983902;28;20125;-71
2022/01/04 10:07:49;;;;;;;0.32;0.32;;;;;;;;;;4979733;28;20125;-70
2022/01/04 10:10:18;;;;;;;0.00;0.00;;;;;;;;;;4971326;28;20030;-70
2022/01/04 10:12:57;;;;;;;0.00;0.00;;;;;;;;;;4972961;28;20030;-71
2022/01/04 10:15:30;;;;;;;0.10;0.10;;;;;;;;;;4995023;28;20065;-70
2022/01/04 10:17:56;;;;;;;0.73;0.30;;;;;;;;;;4987462;28;20029;-71
2022/01/04 10:20:22;;;;;;;0.10;0.10;;;;;;;;;;4984292;28;20389;-71
2022/01/04 10:22:50;;;;;;;0.00;0.00;;;;;;;;;;4989358;28;20054;-71
2022/01/04 10:25:18;;;;;;;0.10;0.10;;;;;;;;;;4976973;28;20113;-71
2022/01/04 10:27:51;;;;;;;0.00;0.00;;;;;;;;;;4975007;28;20035;-71
2022/01/04 10:30:28;;;;;;;0.00;0.00;;;;;;;;;;4984780;28;20033;-70
2022/01/04 10:33:01;;;;;;;0.13;0.13;;;;;;;;;;4981206;28;20035;-82
2022/01/04 10:35:38;;;;;;;0.00;0.00;;;;;;;;;;4986139;28;20602;-71
2022/01/04 10:38:13;;;;;;;0.10;0.10;;;;;;;;;;4977142;28;20031;-71
2022/01/04 10:40:40;;;;;;;0.38;0.38;;;;;;;;;;4974888;28;20050;-71
2022/01/04 10:43:08;;;;;;;0.10;0.10;;;;;;;;;;4974355;28;20497;-70
2022/01/04 10:45:34;;;;;;;0.00;0.00;;;;;;;;;;4977684;28;20066;-70
2022/01/04 10:48:09;;;;;;;0.10;0.10;;;;;;;;;;4970400;28;20554;-70
2022/01/04 10:50:36;;;;;;;0.93;0.77;;;;;;;;;;4972140;28;20496;-69
2022/01/04 10:53:02;;;;;;;0.00;0.00;;;;;;;;;;4969595;28;20045;-70
2022/01/04 10:55:33;;;;;;;0.10;0.10;;;;;;;;;;4956110;28;20023;-70
2022/01/04 10:57:59;;;;;;;0.10;0.10;;;;;;;;;;4978908;28;20025;-71
2022/01/04 11:00:25;;;;;;;0.10;0.10;;;;;;;;;;4972858;28;20066;-71
2022/01/04 11:02:51;;;;;;;0.15;0.15;;;;;;;;;;4992682;28;20034;-71
2022/01/04 11:05:20;;;;;;;0.47;0.35;;;;;;;;;;4976085;28;20037;-70
2022/01/04 11:08:03;;;;;;;0.45;0.45;;;;;;;;;;4980111;28;20089;-72
2022/01/04 11:10:29;;;;;;;0.00;0.00;;;;;;;;;;4984484;28;20038;-71
2022/01/04 11:12:57;;;;;;;0.40;0.35;;;;;;;;;;4986231;28;20615;-70
2022/01/04 11:15:23;;;;;;;0.20;0.20;;;;;;;;;;4975879;28;22640;-70
2022/01/04 11:17:49;;;;;;;0.10;0.10;;;;;;;;;;4979028;28;20039;-70
2022/01/04 11:20:15;;;;;;;0.00;0.00;;;;;;;;;;4976969;28;20062;-70
2022/01/04 11:22:44;;;;;;;0.10;0.10;;;;;;;;;;4977568;28;20082;-69
2022/01/04 11:25:11;;;;;;;0.85;0.40;;;;;;;;;;4983250;28;20476;-70
2022/01/04 11:27:39;;;;;;;0.10;0.10;;;;;;;;;;4978655;28;20026;-70
2022/01/04 11:30:10;;;;;;;0.80;0.35;;;;;;;;;;4985138;28;20062;-70
2022/01/04 11:32:42;;;;;;;0.50;0.50;;;;;;;;;;4972534;28;20397;-69
2022/01/04 11:35:16;;;;;;;0.10;0.10;;;;;;;;;;4983421;28;20037;-70
2022/01/04 11:37:50;;;;;;;0.10;0.10;;;;;;;;;;4975425;28;20448;-70
2022/01/04 11:40:28;;;;;;;0.22;0.22;;;;;;;;;;4984957;28;20030;-70
2022/01/04 11:42:54;;;;;;;0.10;0.10;;;;;;;;;;4979062;28;20485;-69
2022/01/04 11:45:39;;;;;;;0.15;0.15;;;;;;;;;;4980690;28;20046;-70
2022/01/04 11:48:23;;;;;;;0.28;0.28;;;;;;;;;;4988980;28;20038;-70
2022/01/04 11:50:49;;;;;;;0.00;0.00;;;;;;;;;;4991293;28;20062;-70
2022/01/04 11:53:15;;;;;;;1.35;0.73;;;;;;;;;;5000155;28;20065;-70
2022/01/04 11:55:48;;;;;;;0.20;0.20;;;;;;;;;;4984286;28;20766;-71
2022/01/04 11:58:17;;;;;;;0.15;0.10;;;;;;;;;;4983076;28;20462;-70
2022/01/04 12:00:45;;;;;;;0.10;0.10;;;;;;;;;;4973020;28;20038;-70
2022/01/04 12:03:15;;;;;;;0.20;0.10;;;;;;;;;;4989143;28;20134;-70
2022/01/04 12:05:56;;;;;;;0.28;0.28;;;;;;;;;;4977217;28;20030;-69
2022/01/04 12:08:24;;;;;;;0.00;0.00;;;;;;;;;;4974415;28;20033;-70
2022/01/04 12:10:51;;;;;;;0.10;0.10;;;;;;;;;;4982273;28;20498;-69
2022/01/04 12:13:21;;;;;;;0.00;0.00;;;;;;;;;;4977880;28;20038;-70
2022/01/04 12:15:49;;;;;;;0.05;0.05;;;;;;;;;;4980061;28;20049;-69
2022/01/04 12:18:24;;;;;;;0.20;0.20;;;;;;;;;;4975458;28;20027;-70
2022/01/04 12:20:57;;;;;;;1.17;0.38;;;;;;;;;;4980254;28;20022;-69
2022/01/04 12:23:27;;;;;;;0.10;0.10;;;;;;;;;;4976719;28;20035;-69
2022/01/04 12:28:35;;;;;;;0.05;0.05;;;;;;;;;;4979256;28;20045;-69
2022/01/04 12:31:16;;;;;;;1.23;0.55;;;;;;;;;;4980017;28;20031;-69
2022/01/04 12:33:43;;;;;;;0.70;0.70;;;;;;;;;;4976956;28;20536;-70
2022/01/04 12:36:23;;;;;;;0.00;0.00;;;;;;;;;;4975157;28;20030;-69
2022/01/04 12:38:51;;;;;;;0.90;0.32;;;;;;;;;;4979943;28;20423;-69
2022/01/04 12:41:17;;;;;;;0.20;0.20;;;;;;;;;;4983623;28;20143;-69
2022/01/04 12:43:47;;;;;;;0.00;0.00;;;;;;;;;;4975265;28;20112;-69
2022/01/04 12:46:13;;;;;;;0.00;0.00;;;;;;;;;;4990687;28;20038;-69
2022/01/04 12:48:49;;;;;;;0.00;0.00;;;;;;;;;;4977841;28;20062;-69
2022/01/04 12:51:23;;;;;;;0.00;0.00;;;;;;;;;;4978364;28;20030;-70
2022/01/04 12:53:49;;;;;;;0.00;0.00;;;;;;;;;;4981365;28;20026;-69
2022/01/04 12:56:15;;;;;;;0.00;0.00;;;;;;;;;;4984660;28;20037;-70
2022/01/04 12:58:41;;;;;;;0.75;0.70;;;;;;;;;;4986461;28;20031;-70
2022/01/04 13:01:06;;;;;;;0.15;0.15;;;;;;;;;;4984672;28;20067;-70
2022/01/04 13:03:32;;;;;;;0.10;0.10;;;;;;;;;;5009032;28;20030;-70
2022/01/04 13:06:00;;;;;;;0.17;0.17;;;;;;;;;;4999942;28;20041;-70
2022/01/04 13:08:29;;;;;;;0.10;0.10;;;;;;;;;;4990250;28;20032;-69
2022/01/04 13:11:08;;;;;;;0.10;0.10;;;;;;;;;;4990053;28;20600;-69
2022/01/04 13:13:34;;;;;;;0.20;0.20;;;;;;;;;;4999401;28;20116;-70
2022/01/04 13:16:19;;;;;;;0.30;0.30;;;;;;;;;;4998670;28;20113;-70
2022/01/04 13:18:45;;;;;;;0.10;0.10;;;;;;;;;;5005080;28;20022;-70
2022/01/04 13:21:11;;;;;;;0.52;0.25;;;;;;;;;;4988797;28;20780;-70
2022/01/04 13:23:38;;;;;;;0.55;0.55;;;;;;;;;;4988877;28;20489;-69
2022/01/04 13:26:04;;;;;;;0.60;0.30;;;;;;;;;;4992561;28;20440;-69
2022/01/04 13:28:30;;;;;;;0.30;0.30;;;;;;;;;;4990104;28;20076;-69
2022/01/04 13:30:56;;;;;;;0.25;0.25;;;;;;;;;;4987413;28;20073;-70
2022/01/04 13:33:25;;;;;;;0.03;0.03;;;;;;;;;;4990046;28;20034;-69
2022/01/04 13:35:53;;;;;;;0.10;0.10;;;;;;;;;;4990581;28;20026;-70
2022/01/04 13:38:21;;;;;;;0.10;0.10;;;;;;;;;;4989017;28;20430;-70
2022/01/04 13:40:48;;;;;;;0.10;0.10;;;;;;;;;;4999444;28;20026;-70
2022/01/04 13:43:16;;;;;;;0.28;0.10;;;;;;;;;;4995120;28;20018;-70
2022/01/04 13:45:47;;;;;;;0.00;0.00;;;;;;;;;;4985719;28;20094;-69
2022/01/04 13:48:20;;;;;;;0.20;0.20;;;;;;;;;;4984687;28;20092;-70
2022/01/04 13:50:47;;;;;;;1.70;0.70;;;;;;;;;;4994027;28;20612;-70
2022/01/04 13:53:17;;;;;;;0.00;0.00;;;;;;;;;;4989387;28;20768;-69
2022/01/04 13:55:44;;;;;;;0.10;0.10;;;;;;;;;;4998830;28;20420;-73
2022/01/04 13:58:11;;;;;;;0.77;0.35;;;;;;;;;;5006364;28;20037;-69
2022/01/04 14:00:38;;;;;;;0.10;0.10;;;;;;;;;;5008409;28;20033;-69
2022/01/04 14:03:24;;;;;;;0.10;0.10;;;;;;;;;;4996279;28;20026;-69
2022/01/04 14:05:50;;;;;;;0.00;0.00;;;;;;;;;;4990998;28;20034;-70
2022/01/04 14:08:15;;;;;;;0.00;0.00;;;;;;;;;;4979731;28;20026;-70
2022/01/04 14:10:54;;;;;;;0.35;0.35;;;;;;;;;;4980175;28;20061;-70
2022/01/04 14:13:29;;;;;;;0.40;0.40;;;;;;;;;;4993651;28;20088;-69
2022/01/04 14:16:05;;;;;;;0.00;0.00;;;;;;;;;;4983996;28;20567;-75
2022/01/04 14:18:31;;;;;;;0.32;0.32;;;;;;;;;;4988602;28;20026;-73
2022/01/04 14:20:57;;;;;;;0.10;0.10;;;;;;;;;;4985351;28;20034;-70
2022/01/04 14:23:36;;;;;;;0.17;0.17;;;;;;;;;;4981590;28;20038;-69
2022/01/04 14:26:06;;;;;;;0.10;0.10;;;;;;;;;;4978888;28;20023;-70
2022/01/04 14:28:32;;;;;;;0.80;0.52;;;;;;;;;;4982430;28;20031;-69
2022/01/04 14:30:59;;;;;;;0.30;0.30;;;;;;;;;;4983296;28;20034;-69
2022/01/04 14:33:25;;;;;;;0.00;0.00;;;;;;;;;;4979434;28;20031;-68
2022/01/04 14:35:51;;;;;;;0.10;0.10;;;;;;;;;;4995737;28;20026;-68
2022/01/04 14:38:17;;;;;;;0.32;0.30;;;;;;;;;;4985072;28;20042;-68
2022/01/04 14:40:46;;;;;;;0.00;0.00;;;;;;;;;;4984744;28;20048;-68
2022/01/04 14:43:12;;;;;;;0.17;0.17;;;;;;;;;;4980020;28;20407;-68
2022/01/04 14:45:38;;;;;;;0.10;0.10;;;;;;;;;;4984815;28;20129;-68
2022/01/04 14:48:04;;;;;;;0.00;0.00;;;;;;;;;;4982722;28;20034;-68
2022/01/04 14:50:30;;;;;;;0.15;0.15;;;;;;;;;;4985469;28;20141;-68
2022/01/04 14:52:57;;;;;;;0.00;0.00;;;;;;;;;;4996123;28;20153;-68
2022/01/04 14:55:23;;;;;;;0.90;0.90;;;;;;;;;;4984278;28;20026;-68
2022/01/04 14:57:49;;;;;;;1.88;1.38;;;;;;;;;;4996642;28;20036;-68
2022/01/04 15:00:17;;;;;;;0.20;0.20;;;;;;;;;;4987286;28;20089;-68
2022/01/04 15:02:50;;;;;;;0.10;0.10;;;;;;;;;;4990753;28;20022;-69